Kenaston, North Dakota
Current Conditions -  °F | °C
As of 2:55 PM on Sunday 23 Nov 2014 (Local Time) from K08D Reporting Station
Light Snow Light Snow  
Wind Chill: -3°   Ceiling: 3300
Heat Index: 16°   Visibility: 9mi
Dew Point: 12°   Wind: 24mph
Humidity: 86%   Direction: 310°NW
Pressure: 29.64"   Gusts: 32mph
Location:  48.6651°N, 102.033°W
Report Text: K08D 232055Z AUTO 31021G28KT 9SM -SN SCT019 OVC033 M09/M11 A2964 RMK AO2 P0003
Loading
Personal Weather Stations






























Interactive Weather Map New forecast layout! Learn more

10-Day Weather Forecast

Advertisements
Track Severe Weather on mobile